sensor_id;sensor_type;location;lat;lon;timestamp;pressure;altitude;pressure_sealevel;temperature;humidity
36726;BME280;44936;52.086;5.150;2023-02-20T00:01:31;103084.16;;;6.42;100.00
36726;BME280;44936;52.086;5.150;2023-02-20T00:03:57;103080.50;;;6.39;100.00
36726;BME280;44936;52.086;5.150;2023-02-20T00:06:22;103063.09;;;6.23;100.00
36726;BME280;44936;52.086;5.150;2023-02-20T00:08:48;103067.38;;;6.37;100.00
36726;BME280;44936;52.086;5.150;2023-02-20T00:11:13;103024.34;;;6.29;100.00
36726;BME280;44936;52.086;5.150;2023-02-20T00:13:44;103054.84;;;6.46;100.00
36726;BME280;44936;52.086;5.150;2023-02-20T00:16:10;103062.53;;;6.60;100.00
36726;BME280;44936;52.086;5.150;2023-02-20T00:18:35;103059.50;;;6.52;100.00
36726;BME280;44936;52.086;5.150;2023-02-20T00:21:00;103054.47;;;6.55;100.00
36726;BME280;44936;52.086;5.150;2023-02-20T00:23:26;103034.31;;;6.52;100.00
36726;BME280;44936;52.086;5.150;2023-02-20T00:25:51;103038.25;;;6.61;100.00
36726;BME280;44936;52.086;5.150;2023-02-20T00:28:16;103044.63;;;6.66;100.00
36726;BME280;44936;52.086;5.150;2023-02-20T00:30:42;103042.25;;;6.54;100.00
36726;BME280;44936;52.086;5.150;2023-02-20T00:33:07;102993.31;;;6.34;100.00
36726;BME280;44936;52.086;5.150;2023-02-20T00:35:33;103027.97;;;6.47;100.00
36726;BME280;44936;52.086;5.150;2023-02-20T00:37:58;103009.53;;;6.44;100.00
36726;BME280;44936;52.086;5.150;2023-02-20T00:40:24;103005.44;;;6.33;100.00
36726;BME280;44936;52.086;5.150;2023-02-20T00:42:50;103025.19;;;6.44;100.00
36726;BME280;44936;52.086;5.150;2023-02-20T00:45:16;103000.75;;;6.42;100.00
36726;BME280;44936;52.086;5.150;2023-02-20T00:47:42;103004.16;;;6.41;100.00
36726;BME280;44936;52.086;5.150;2023-02-20T00:50:09;103028.78;;;6.46;100.00
36726;BME280;44936;52.086;5.150;2023-02-20T00:52:34;103013.16;;;6.46;100.00
36726;BME280;44936;52.086;5.150;2023-02-20T00:55:00;102993.41;;;6.35;100.00
36726;BME280;44936;52.086;5.150;2023-02-20T00:57:26;103003.34;;;6.42;100.00
36726;BME280;44936;52.086;5.150;2023-02-20T00:59:51;103006.63;;;6.38;100.00
36726;BME280;44936;52.086;5.150;2023-02-20T01:02:17;102965.66;;;6.05;100.00
36726;BME280;44936;52.086;5.150;2023-02-20T01:04:43;102998.44;;;6.32;100.00
36726;BME280;44936;52.086;5.150;2023-02-20T01:07:08;102980.38;;;6.19;100.00
36726;BME280;44936;52.086;5.150;2023-02-20T01:09:33;102965.03;;;6.25;100.00
36726;BME280;44936;52.086;5.150;2023-02-20T01:11:59;102980.28;;;6.34;100.00
36726;BME280;44936;52.086;5.150;2023-02-20T01:14:24;102971.72;;;6.20;100.00
36726;BME280;44936;52.086;5.150;2023-02-20T01:16:51;102940.78;;;6.26;100.00
36726;BME280;44936;52.086;5.150;2023-02-20T01:19:18;102935.56;;;6.10;100.00
36726;BME280;44936;52.086;5.150;2023-02-20T01:21:44;102913.50;;;6.03;100.00
36726;BME280;44936;52.086;5.150;2023-02-20T01:24:11;102914.81;;;6.11;100.00
36726;BME280;44936;52.086;5.150;2023-02-20T01:26:36;102892.47;;;6.00;100.00
36726;BME280;44936;52.086;5.150;2023-02-20T01:29:03;102894.59;;;6.07;100.00
36726;BME280;44936;52.086;5.150;2023-02-20T01:31:28;102900.03;;;5.95;100.00
36726;BME280;44936;52.086;5.150;2023-02-20T01:33:54;102897.94;;;6.05;100.00
36726;BME280;44936;52.086;5.150;2023-02-20T01:36:19;102874.84;;;6.11;100.00
36726;BME280;44936;52.086;5.150;2023-02-20T01:38:45;102881.75;;;6.10;100.00
36726;BME280;44936;52.086;5.150;2023-02-20T01:41:13;102850.03;;;5.86;100.00
36726;BME280;44936;52.086;5.150;2023-02-20T01:43:38;102868.41;;;6.20;100.00
36726;BME280;44936;52.086;5.150;2023-02-20T01:48:50;102855.94;;;6.31;100.00
36726;BME280;44936;52.086;5.150;2023-02-20T01:51:16;102861.28;;;6.34;100.00
36726;BME280;44936;52.086;5.150;2023-02-20T01:53:42;102849.56;;;6.26;100.00
36726;BME280;44936;52.086;5.150;2023-02-20T01:56:08;102857.22;;;6.39;100.00
36726;BME280;44936;52.086;5.150;2023-02-20T01:58:44;102864.31;;;6.42;100.00
36726;BME280;44936;52.086;5.150;2023-02-20T02:01:10;102847.28;;;6.48;100.00
36726;BME280;44936;52.086;5.150;2023-02-20T02:03:40;102852.00;;;6.39;100.00
36726;BME280;44936;52.086;5.150;2023-02-20T02:06:08;102845.88;;;6.55;100.00
36726;BME280;44936;52.086;5.150;2023-02-20T02:08:35;102850.84;;;6.50;100.00
36726;BME280;44936;52.086;5.150;2023-02-20T02:11:08;102846.03;;;6.58;100.00
36726;BME280;44936;52.086;5.150;2023-02-20T02:13:36;102848.88;;;6.63;100.00
36726;BME280;44936;52.086;5.150;2023-02-20T02:18:40;102849.09;;;6.67;100.00
36726;BME280;44936;52.086;5.150;2023-02-20T02:37:47;102827.44;;;6.86;100.00
36726;BME280;44936;52.086;5.150;2023-02-20T02:45:54;102806.59;;;6.86;100.00
36726;BME280;44936;52.086;5.150;2023-02-20T02:51:13;102803.47;;;6.93;100.00
36726;BME280;44936;52.086;5.150;2023-02-20T02:53:40;102772.91;;;6.73;100.00
36726;BME280;44936;52.086;5.150;2023-02-20T02:56:05;102804.50;;;6.97;100.00
36726;BME280;44936;52.086;5.150;2023-02-20T02:58:50;102807.03;;;6.95;100.00
36726;BME280;44936;52.086;5.150;2023-02-20T03:01:19;102809.06;;;7.01;100.00
36726;BME280;44936;52.086;5.150;2023-02-20T03:03:47;102809.13;;;7.02;100.00
36726;BME280;44936;52.086;5.150;2023-02-20T03:06:43;102812.06;;;7.08;100.00
36726;BME280;44936;52.086;5.150;2023-02-20T03:09:17;102812.88;;;7.07;100.00
36726;BME280;44936;52.086;5.150;2023-02-20T03:11:45;102809.59;;;7.12;100.00
36726;BME280;44936;52.086;5.150;2023-02-20T03:14:20;102816.88;;;7.19;100.00
36726;BME280;44936;52.086;5.150;2023-02-20T03:17:11;102790.63;;;6.98;100.00
36726;BME280;44936;52.086;5.150;2023-02-20T03:19:42;102820.31;;;7.18;100.00
36726;BME280;44936;52.086;5.150;2023-02-20T03:22:13;102803.09;;;7.03;100.00
36726;BME280;44936;52.086;5.150;2023-02-20T03:24:42;102829.25;;;7.23;100.00
36726;BME280;44936;52.086;5.150;2023-02-20T03:27:32;102825.38;;;7.15;100.00
36726;BME280;44936;52.086;5.150;2023-02-20T03:30:07;102789.66;;;6.96;100.00
36726;BME280;44936;52.086;5.150;2023-02-20T03:32:35;102772.75;;;6.88;100.00
36726;BME280;44936;52.086;5.150;2023-02-20T03:35:22;102816.38;;;7.26;100.00
36726;BME280;44936;52.086;5.150;2023-02-20T03:38:09;102824.19;;;7.26;100.00
36726;BME280;44936;52.086;5.150;2023-02-20T03:40:57;102826.00;;;7.27;100.00
36726;BME280;44936;52.086;5.150;2023-02-20T03:43:44;102819.81;;;7.25;100.00
36726;BME280;44936;52.086;5.150;2023-02-20T03:46:16;102812.13;;;7.28;100.00
36726;BME280;44936;52.086;5.150;2023-02-20T03:51:15;102779.09;;;7.10;100.00
36726;BME280;44936;52.086;5.150;2023-02-20T03:53:42;102787.34;;;7.20;100.00
36726;BME280;44936;52.086;5.150;2023-02-20T03:56:13;102796.22;;;7.23;100.00
36726;BME280;44936;52.086;5.150;2023-02-20T03:58:43;102807.19;;;7.34;100.00
36726;BME280;44936;52.086;5.150;2023-02-20T04:01:13;102800.09;;;7.31;100.00
36726;BME280;44936;52.086;5.150;2023-02-20T04:03:44;102823.44;;;7.28;100.00
36726;BME280;44936;52.086;5.150;2023-02-20T04:06:12;102795.75;;;7.32;100.00
36726;BME280;44936;52.086;5.150;2023-02-20T04:08:44;102794.34;;;7.38;100.00
36726;BME280;44936;52.086;5.150;2023-02-20T04:11:19;102782.56;;;7.29;100.00
36726;BME280;44936;52.086;5.150;2023-02-20T04:13:47;102758.78;;;7.23;100.00
36726;BME280;44936;52.086;5.150;2023-02-20T04:16:13;102781.25;;;7.19;100.00
36726;BME280;44936;52.086;5.150;2023-02-20T04:18:39;102805.25;;;7.30;100.00
36726;BME280;44936;52.086;5.150;2023-02-20T04:21:16;102819.41;;;7.35;100.00
36726;BME280;44936;52.086;5.150;2023-02-20T04:23:45;102788.09;;;7.35;100.00
36726;BME280;44936;52.086;5.150;2023-02-20T04:26:16;102800.69;;;7.44;100.00
36726;BME280;44936;52.086;5.150;2023-02-20T04:28:43;102802.53;;;7.46;100.00
36726;BME280;44936;52.086;5.150;2023-02-20T04:31:11;102785.41;;;7.33;100.00
36726;BME280;44936;52.086;5.150;2023-02-20T04:33:38;102794.78;;;7.48;100.00
36726;BME280;44936;52.086;5.150;2023-02-20T04:36:03;102806.81;;;7.44;100.00
36726;BME280;44936;52.086;5.150;2023-02-20T04:38:29;102762.03;;;7.17;100.00
36726;BME280;44936;52.086;5.150;2023-02-20T04:40:54;102777.66;;;7.35;100.00
36726;BME280;44936;52.086;5.150;2023-02-20T04:43:23;102807.97;;;7.51;100.00
36726;BME280;44936;52.086;5.150;2023-02-20T04:45:48;102801.78;;;7.49;100.00
36726;BME280;44936;52.086;5.150;2023-02-20T04:48:13;102772.09;;;7.47;100.00
36726;BME280;44936;52.086;5.150;2023-02-20T04:50:39;102809.09;;;7.56;100.00
36726;BME280;44936;52.086;5.150;2023-02-20T04:53:05;102789.25;;;7.42;100.00
36726;BME280;44936;52.086;5.150;2023-02-20T04:55:31;102803.19;;;7.60;100.00
36726;BME280;44936;52.086;5.150;2023-02-20T04:57:56;102798.34;;;7.50;100.00
36726;BME280;44936;52.086;5.150;2023-02-20T05:00:24;102808.88;;;7.51;100.00
36726;BME280;44936;52.086;5.150;2023-02-20T05:02:50;102804.75;;;7.56;100.00
36726;BME280;44936;52.086;5.150;2023-02-20T05:05:27;102801.47;;;7.60;100.00
36726;BME280;44936;52.086;5.150;2023-02-20T05:07:58;102771.13;;;7.45;100.00
36726;BME280;44936;52.086;5.150;2023-02-20T05:10:25;102784.47;;;7.51;100.00
36726;BME280;44936;52.086;5.150;2023-02-20T05:12:51;102791.41;;;7.50;100.00
36726;BME280;44936;52.086;5.150;2023-02-20T05:15:17;102805.03;;;7.62;100.00
36726;BME280;44936;52.086;5.150;2023-02-20T05:17:43;102804.63;;;7.53;100.00
36726;BME280;44936;52.086;5.150;2023-02-20T05:20:09;102814.44;;;7.59;100.00
36726;BME280;44936;52.086;5.150;2023-02-20T05:22:34;102804.22;;;7.63;100.00
36726;BME280;44936;52.086;5.150;2023-02-20T05:25:00;102807.44;;;7.58;100.00
36726;BME280;44936;52.086;5.150;2023-02-20T05:27:26;102821.16;;;7.72;100.00
36726;BME280;44936;52.086;5.150;2023-02-20T05:29:55;102835.69;;;7.66;100.00
36726;BME280;44936;52.086;5.150;2023-02-20T05:32:22;102818.59;;;7.73;100.00
36726;BME280;44936;52.086;5.150;2023-02-20T05:34:48;102831.59;;;7.72;100.00
36726;BME280;44936;52.086;5.150;2023-02-20T05:37:16;102797.38;;;7.48;100.00
36726;BME280;44936;52.086;5.150;2023-02-20T05:39:42;102818.25;;;7.65;100.00
36726;BME280;44936;52.086;5.150;2023-02-20T05:42:08;102838.59;;;7.73;100.00
36726;BME280;44936;52.086;5.150;2023-02-20T05:44:34;102838.06;;;7.80;100.00
36726;BME280;44936;52.086;5.150;2023-02-20T05:47:00;102824.84;;;7.77;100.00
36726;BME280;44936;52.086;5.150;2023-02-20T05:49:26;102827.44;;;7.77;100.00
36726;BME280;44936;52.086;5.150;2023-02-20T05:51:55;102831.94;;;7.79;100.00
36726;BME280;44936;52.086;5.150;2023-02-20T05:54:20;102821.44;;;7.78;100.00
36726;BME280;44936;52.086;5.150;2023-02-20T05:56:46;102829.28;;;7.78;100.00
36726;BME280;44936;52.086;5.150;2023-02-20T05:59:15;102818.66;;;7.75;100.00
36726;BME280;44936;52.086;5.150;2023-02-20T06:01:41;102812.91;;;7.82;100.00
36726;BME280;44936;52.086;5.150;2023-02-20T06:04:06;102785.38;;;7.51;100.00
36726;BME280;44936;52.086;5.150;2023-02-20T06:06:37;102809.03;;;7.74;100.00
36726;BME280;44936;52.086;5.150;2023-02-20T06:09:04;102814.88;;;7.68;100.00
36726;BME280;44936;52.086;5.150;2023-02-20T06:11:36;102773.53;;;7.59;100.00
36726;BME280;44936;52.086;5.150;2023-02-20T06:14:03;102796.81;;;7.73;100.00
36726;BME280;44936;52.086;5.150;2023-02-20T06:16:29;102791.16;;;7.63;100.00
36726;BME280;44936;52.086;5.150;2023-02-20T06:18:56;102787.44;;;7.58;100.00
36726;BME280;44936;52.086;5.150;2023-02-20T06:21:23;102806.06;;;7.66;100.00
36726;BME280;44936;52.086;5.150;2023-02-20T06:23:49;102800.91;;;7.67;100.00
36726;BME280;44936;52.086;5.150;2023-02-20T06:26:16;102824.78;;;7.75;100.00
36726;BME280;44936;52.086;5.150;2023-02-20T06:28:43;102831.72;;;7.75;100.00
36726;BME280;44936;52.086;5.150;2023-02-20T06:31:10;102816.94;;;7.75;100.00
36726;BME280;44936;52.086;5.150;2023-02-20T06:33:36;102774.13;;;7.52;100.00
36726;BME280;44936;52.086;5.150;2023-02-20T06:36:02;102821.34;;;7.76;100.00
36726;BME280;44936;52.086;5.150;2023-02-20T06:38:27;102815.38;;;7.79;100.00
36726;BME280;44936;52.086;5.150;2023-02-20T06:40:53;102792.66;;;7.58;100.00
36726;BME280;44936;52.086;5.150;2023-02-20T06:43:19;102818.00;;;7.79;100.00
36726;BME280;44936;52.086;5.150;2023-02-20T06:45:45;102807.03;;;7.68;100.00
36726;BME280;44936;52.086;5.150;2023-02-20T06:48:11;102817.63;;;7.71;100.00
36726;BME280;44936;52.086;5.150;2023-02-20T06:50:38;102826.03;;;7.83;100.00
36726;BME280;44936;52.086;5.150;2023-02-20T06:53:04;102801.91;;;7.70;100.00
36726;BME280;44936;52.086;5.150;2023-02-20T06:55:29;102788.19;;;7.56;100.00
36726;BME280;44936;52.086;5.150;2023-02-20T06:57:55;102828.44;;;7.79;100.00
36726;BME280;44936;52.086;5.150;2023-02-20T07:00:20;102814.81;;;7.86;100.00
36726;BME280;44936;52.086;5.150;2023-02-20T07:02:46;102826.91;;;7.84;100.00
36726;BME280;44936;52.086;5.150;2023-02-20T07:05:11;102826.78;;;7.81;100.00
36726;BME280;44936;52.086;5.150;2023-02-20T07:07:37;102832.06;;;7.82;100.00
36726;BME280;44936;52.086;5.150;2023-02-20T07:10:03;102824.31;;;7.84;100.00
36726;BME280;44936;52.086;5.150;2023-02-20T07:12:31;102835.09;;;7.91;100.00
36726;BME280;44936;52.086;5.150;2023-02-20T07:14:58;102822.66;;;7.86;100.00
36726;BME280;44936;52.086;5.150;2023-02-20T07:17:26;102836.53;;;7.85;100.00
36726;BME280;44936;52.086;5.150;2023-02-20T07:19:51;102830.59;;;7.87;100.00
36726;BME280;44936;52.086;5.150;2023-02-20T07:22:17;102838.31;;;7.86;100.00
36726;BME280;44936;52.086;5.150;2023-02-20T07:24:42;102857.44;;;7.85;100.00
36726;BME280;44936;52.086;5.150;2023-02-20T07:27:08;102849.53;;;7.83;100.00
36726;BME280;44936;52.086;5.150;2023-02-20T07:29:38;102850.66;;;7.88;100.00
36726;BME280;44936;52.086;5.150;2023-02-20T07:32:05;102831.25;;;7.83;100.00
36726;BME280;44936;52.086;5.150;2023-02-20T07:34:32;102820.88;;;7.85;100.00
36726;BME280;44936;52.086;5.150;2023-02-20T07:36:58;102828.50;;;8.00;100.00
36726;BME280;44936;52.086;5.150;2023-02-20T07:39:23;102819.03;;;8.02;100.00
36726;BME280;44936;52.086;5.150;2023-02-20T07:41:50;102817.00;;;7.77;100.00
36726;BME280;44936;52.086;5.150;2023-02-20T07:44:16;102828.56;;;7.82;100.00
36726;BME280;44936;52.086;5.150;2023-02-20T07:46:41;102839.19;;;8.04;100.00
36726;BME280;44936;52.086;5.150;2023-02-20T07:49:07;102827.91;;;8.05;100.00
36726;BME280;44936;52.086;5.150;2023-02-20T07:51:33;102863.31;;;7.99;100.00
36726;BME280;44936;52.086;5.150;2023-02-20T07:53:58;102844.31;;;8.03;100.00
36726;BME280;44936;52.086;5.150;2023-02-20T07:56:24;102849.78;;;8.07;100.00
36726;BME280;44936;52.086;5.150;2023-02-20T07:58:49;102838.50;;;8.08;100.00
36726;BME280;44936;52.086;5.150;2023-02-20T08:01:15;102833.88;;;8.03;100.00
36726;BME280;44936;52.086;5.150;2023-02-20T08:03:41;102849.72;;;8.06;100.00
36726;BME280;44936;52.086;5.150;2023-02-20T08:06:07;102839.59;;;8.13;100.00
36726;BME280;44936;52.086;5.150;2023-02-20T08:08:32;102819.50;;;8.12;100.00
36726;BME280;44936;52.086;5.150;2023-02-20T08:10:58;102839.44;;;8.10;100.00
36726;BME280;44936;52.086;5.150;2023-02-20T08:13:23;102827.84;;;8.23;100.00
36726;BME280;44936;52.086;5.150;2023-02-20T08:15:49;102828.84;;;8.27;100.00
36726;BME280;44936;52.086;5.150;2023-02-20T08:18:14;102833.19;;;8.26;100.00
36726;BME280;44936;52.086;5.150;2023-02-20T08:20:40;102825.84;;;8.37;100.00
36726;BME280;44936;52.086;5.150;2023-02-20T08:23:15;102841.38;;;8.34;100.00
36726;BME280;44936;52.086;5.150;2023-02-20T08:25:40;102833.97;;;8.43;100.00
36726;BME280;44936;52.086;5.150;2023-02-20T08:28:05;102843.72;;;8.47;100.00
36726;BME280;44936;52.086;5.150;2023-02-20T08:30:31;102848.63;;;8.39;100.00
36726;BME280;44936;52.086;5.150;2023-02-20T08:32:56;102842.38;;;8.57;100.00
36726;BME280;44936;52.086;5.150;2023-02-20T08:35:22;102845.16;;;8.60;100.00
36726;BME280;44936;52.086;5.150;2023-02-20T08:37:49;102844.22;;;8.58;100.00
36726;BME280;44936;52.086;5.150;2023-02-20T08:40:14;102840.81;;;8.60;100.00
36726;BME280;44936;52.086;5.150;2023-02-20T08:42:39;102838.88;;;8.56;100.00
36726;BME280;44936;52.086;5.150;2023-02-20T08:45:06;102846.16;;;8.42;100.00
36726;BME280;44936;52.086;5.150;2023-02-20T08:47:32;102839.22;;;8.64;100.00
36726;BME280;44936;52.086;5.150;2023-02-20T08:49:58;102820.13;;;8.45;100.00
36726;BME280;44936;52.086;5.150;2023-02-20T08:52:23;102807.81;;;8.43;100.00
36726;BME280;44936;52.086;5.150;2023-02-20T08:54:49;102807.94;;;8.46;100.00
36726;BME280;44936;52.086;5.150;2023-02-20T08:57:15;102831.56;;;8.68;100.00
36726;BME280;44936;52.086;5.150;2023-02-20T08:59:41;102808.72;;;8.43;100.00
36726;BME280;44936;52.086;5.150;2023-02-20T09:02:15;102859.53;;;8.69;100.00
36726;BME280;44936;52.086;5.150;2023-02-20T09:04:43;102844.28;;;8.59;100.00
36726;BME280;44936;52.086;5.150;2023-02-20T09:07:09;102830.09;;;8.54;100.00
36726;BME280;44936;52.086;5.150;2023-02-20T09:09:35;102830.25;;;8.57;100.00
36726;BME280;44936;52.086;5.150;2023-02-20T09:12:00;102811.50;;;8.48;100.00
36726;BME280;44936;52.086;5.150;2023-02-20T09:14:25;102828.56;;;8.59;100.00
36726;BME280;44936;52.086;5.150;2023-02-20T09:16:51;102827.28;;;8.70;100.00
36726;BME280;44936;52.086;5.150;2023-02-20T09:19:17;102798.06;;;8.60;100.00
36726;BME280;44936;52.086;5.150;2023-02-20T09:21:45;102809.03;;;8.72;100.00
36726;BME280;44936;52.086;5.150;2023-02-20T09:24:10;102819.50;;;8.72;100.00
36726;BME280;44936;52.086;5.150;2023-02-20T09:26:35;102819.16;;;8.84;100.00
36726;BME280;44936;52.086;5.150;2023-02-20T09:29:01;102831.00;;;8.75;100.00
36726;BME280;44936;52.086;5.150;2023-02-20T09:31:26;102824.69;;;8.70;100.00
36726;BME280;44936;52.086;5.150;2023-02-20T09:33:51;102830.88;;;8.72;100.00
36726;BME280;44936;52.086;5.150;2023-02-20T09:36:17;102819.44;;;8.70;100.00
36726;BME280;44936;52.086;5.150;2023-02-20T09:38:42;102812.38;;;8.68;100.00
36726;BME280;44936;52.086;5.150;2023-02-20T09:41:20;102808.88;;;8.67;100.00
36726;BME280;44936;52.086;5.150;2023-02-20T09:43:58;102789.16;;;8.75;100.00
36726;BME280;44936;52.086;5.150;2023-02-20T09:46:27;102824.22;;;8.80;100.00
36726;BME280;44936;52.086;5.150;2023-02-20T09:51:36;102820.34;;;8.71;100.00
36726;BME280;44936;52.086;5.150;2023-02-20T09:54:13;102824.38;;;8.84;100.00
36726;BME280;44936;52.086;5.150;2023-02-20T09:56:44;102811.94;;;8.78;100.00
36726;BME280;44936;52.086;5.150;2023-02-20T10:02:38;102833.91;;;8.83;100.00
36726;BME280;44936;52.086;5.150;2023-02-20T10:04:41;102834.19;;;8.89;100.00
36726;BME280;44936;52.086;5.150;2023-02-20T10:07:25;102834.97;;;8.87;100.00
36726;BME280;44936;52.086;5.150;2023-02-20T10:09:51;102832.16;;;9.03;100.00
36726;BME280;44936;52.086;5.150;2023-02-20T10:12:31;102816.59;;;8.85;100.00
36726;BME280;44936;52.086;5.150;2023-02-20T10:15:19;102811.59;;;8.91;100.00
36726;BME280;44936;52.086;5.150;2023-02-20T10:18:12;102806.88;;;8.83;100.00
36726;BME280;44936;52.086;5.150;2023-02-20T10:23:40;102810.50;;;9.07;100.00
36726;BME280;44936;52.086;5.150;2023-02-20T10:26:14;102821.53;;;9.21;100.00
36726;BME280;44936;52.086;5.150;2023-02-20T10:28:42;102805.47;;;9.12;100.00
36726;BME280;44936;52.086;5.150;2023-02-20T10:31:26;102812.75;;;8.98;100.00
36726;BME280;44936;52.086;5.150;2023-02-20T10:34:08;102803.81;;;8.93;100.00
36726;BME280;44936;52.086;5.150;2023-02-20T10:36:44;102788.25;;;8.96;100.00
36726;BME280;44936;52.086;5.150;2023-02-20T10:39:14;102803.38;;;9.03;100.00
36726;BME280;44936;52.086;5.150;2023-02-20T10:46:59;102824.63;;;9.11;100.00
36726;BME280;44936;52.086;5.150;2023-02-20T10:50:07;102788.59;;;9.05;100.00
36726;BME280;44936;52.086;5.150;2023-02-20T10:53:01;102812.94;;;9.02;100.00
36726;BME280;44936;52.086;5.150;2023-02-20T10:58:07;102817.91;;;8.96;100.00
36726;BME280;44936;52.086;5.150;2023-02-20T11:00:39;102793.91;;;9.06;100.00
36726;BME280;44936;52.086;5.150;2023-02-20T11:03:11;102799.91;;;9.04;100.00
36726;BME280;44936;52.086;5.150;2023-02-20T11:05:44;102810.03;;;9.17;100.00
36726;BME280;44936;52.086;5.150;2023-02-20T11:08:10;102824.78;;;9.15;100.00
36726;BME280;44936;52.086;5.150;2023-02-20T11:10:35;102807.00;;;9.06;100.00
36726;BME280;44936;52.086;5.150;2023-02-20T11:13:03;102796.00;;;9.15;100.00
36726;BME280;44936;52.086;5.150;2023-02-20T11:15:31;102780.56;;;9.00;100.00
36726;BME280;44936;52.086;5.150;2023-02-20T11:17:57;102772.78;;;9.02;100.00
36726;BME280;44936;52.086;5.150;2023-02-20T11:23:00;102737.41;;;8.91;100.00
36726;BME280;44936;52.086;5.150;2023-02-20T11:25:28;102767.94;;;9.11;100.00
36726;BME280;44936;52.086;5.150;2023-02-20T11:30:40;102775.47;;;9.03;100.00
36726;BME280;44936;52.086;5.150;2023-02-20T11:33:24;102762.69;;;9.11;100.00
36726;BME280;44936;52.086;5.150;2023-02-20T11:35:58;102736.59;;;8.92;100.00
36726;BME280;44936;52.086;5.150;2023-02-20T11:38:34;102757.19;;;9.05;100.00
36726;BME280;44936;52.086;5.150;2023-02-20T11:43:41;102774.78;;;9.09;100.00
36726;BME280;44936;52.086;5.150;2023-02-20T11:46:22;102751.31;;;9.11;100.00
36726;BME280;44936;52.086;5.150;2023-02-20T11:49:02;102750.53;;;9.13;100.00
36726;BME280;44936;52.086;5.150;2023-02-20T11:51:39;102735.88;;;9.18;100.00
36726;BME280;44936;52.086;5.150;2023-02-20T11:54:23;102740.00;;;9.34;100.00
36726;BME280;44936;52.086;5.150;2023-02-20T12:02:21;102749.19;;;9.23;100.00
36726;BME280;44936;52.086;5.150;2023-02-20T12:05:10;102774.09;;;9.35;100.00
36726;BME280;44936;52.086;5.150;2023-02-20T12:10:42;102776.34;;;9.26;100.00
36726;BME280;44936;52.086;5.150;2023-02-20T12:13:13;102757.63;;;9.16;100.00
36726;BME280;44936;52.086;5.150;2023-02-20T12:15:39;102778.09;;;9.26;100.00
36726;BME280;44936;52.086;5.150;2023-02-20T12:18:22;102773.00;;;9.29;100.00
36726;BME280;44936;52.086;5.150;2023-02-20T12:23:34;102769.22;;;9.22;100.00
36726;BME280;44936;52.086;5.150;2023-02-20T12:29:13;102769.28;;;9.24;100.00
36726;BME280;44936;52.086;5.150;2023-02-20T12:37:23;102783.00;;;9.18;100.00
36726;BME280;44936;52.086;5.150;2023-02-20T12:40:05;102759.81;;;9.05;100.00
36726;BME280;44936;52.086;5.150;2023-02-20T12:45:39;102761.97;;;9.38;100.00
36726;BME280;44936;52.086;5.150;2023-02-20T12:53:46;102743.56;;;9.36;100.00
36726;BME280;44936;52.086;5.150;2023-02-20T13:01:26;102738.47;;;9.39;100.00
36726;BME280;44936;52.086;5.150;2023-02-20T13:06:46;102755.84;;;9.37;100.00
36726;BME280;44936;52.086;5.150;2023-02-20T13:11:50;102747.50;;;9.47;100.00
36726;BME280;44936;52.086;5.150;2023-02-20T13:14:22;102741.25;;;9.44;100.00
36726;BME280;44936;52.086;5.150;2023-02-20T13:19:55;102741.47;;;9.50;100.00
36726;BME280;44936;52.086;5.150;2023-02-20T13:22:23;102723.75;;;9.43;100.00
36726;BME280;44936;52.086;5.150;2023-02-20T13:24:48;102730.16;;;9.51;100.00
36726;BME280;44936;52.086;5.150;2023-02-20T13:27:29;102727.53;;;9.51;100.00
36726;BME280;44936;52.086;5.150;2023-02-20T13:30:11;102729.47;;;9.55;100.00
36726;BME280;44936;52.086;5.150;2023-02-20T13:32:41;102697.34;;;9.36;100.00
36726;BME280;44936;52.086;5.150;2023-02-20T13:38:15;102701.25;;;9.48;100.00
36726;BME280;44936;52.086;5.150;2023-02-20T13:41:02;102700.91;;;9.39;100.00
36726;BME280;44936;52.086;5.150;2023-02-20T13:43:30;102680.78;;;9.38;100.00
36726;BME280;44936;52.086;5.150;2023-02-20T13:53:48;102671.69;;;9.52;100.00
36726;BME280;44936;52.086;5.150;2023-02-20T13:59:09;102663.22;;;9.35;100.00
36726;BME280;44936;52.086;5.150;2023-02-20T14:01:55;102679.81;;;9.35;100.00
36726;BME280;44936;52.086;5.150;2023-02-20T14:04:21;102697.22;;;9.33;100.00
36726;BME280;44936;52.086;5.150;2023-02-20T14:06:56;102690.44;;;9.39;100.00
36726;BME280;44936;52.086;5.150;2023-02-20T14:09:26;102692.16;;;9.62;100.00
36726;BME280;44936;52.086;5.150;2023-02-20T14:12:02;102684.47;;;9.67;100.00
36726;BME280;44936;52.086;5.150;2023-02-20T14:14:31;102681.72;;;9.40;100.00
36726;BME280;44936;52.086;5.150;2023-02-20T14:17:17;102661.97;;;9.25;100.00
36726;BME280;44936;52.086;5.150;2023-02-20T14:19:46;102664.09;;;9.35;100.00
36726;BME280;44936;52.086;5.150;2023-02-20T14:22:19;102691.97;;;9.33;100.00
36726;BME280;44936;52.086;5.150;2023-02-20T14:24:46;102668.69;;;9.41;100.00
36726;BME280;44936;52.086;5.150;2023-02-20T14:27:26;102673.94;;;9.41;100.00
36726;BME280;44936;52.086;5.150;2023-02-20T14:30:11;102674.75;;;9.40;100.00
36726;BME280;44936;52.086;5.150;2023-02-20T14:32:41;102665.19;;;9.41;100.00
36726;BME280;44936;52.086;5.150;2023-02-20T14:37:45;102652.75;;;9.35;100.00
36726;BME280;44936;52.086;5.150;2023-02-20T14:45:43;102625.00;;;9.16;100.00
36726;BME280;44936;52.086;5.150;2023-02-20T14:48:23;102629.19;;;9.11;100.00
36726;BME280;44936;52.086;5.150;2023-02-20T14:51:10;102648.13;;;9.28;100.00
36726;BME280;44936;52.086;5.150;2023-02-20T14:53:37;102641.88;;;9.24;100.00
36726;BME280;44936;52.086;5.150;2023-02-20T14:56:16;102645.63;;;9.31;100.00
36726;BME280;44936;52.086;5.150;2023-02-20T14:58:45;102628.13;;;9.30;100.00
36726;BME280;44936;52.086;5.150;2023-02-20T15:04:00;102646.50;;;9.31;100.00
36726;BME280;44936;52.086;5.150;2023-02-20T15:06:28;102654.13;;;9.25;100.00